Time;durP1;ratioP1;P1;durP2;ratioP2;P2;SDS_P1;SDS_P2;PMS_P1;PMS_P2;Temp;Humidity;BMP_temperature;BMP_pressure;BME280_temperature;BME280_humidity;BME280_pressure;Samples;Min_cycle;Max_cycle;Signal;HPM_P1;HPM_P2
2022/01/26 00:00:07;;;;;;;0.62;0.62;;;4.70;99.90;;;;;;4441643;32;20110;-69
2022/01/26 00:05:53;;;;;;;0.35;0.35;;;4.70;99.90;;;;;;4441236;32;20072;-70
2022/01/26 00:08:05;;;;;;;0.60;0.60;;;4.80;99.90;;;;;;4440585;32;20100;-69
2022/01/26 00:10:31;;;;;;;1.45;0.88;;;4.80;99.90;;;;;;4442386;32;20069;-69
2022/01/26 00:12:56;;;;;;;3.10;1.23;;;4.60;99.90;;;;;;4443751;32;20073;-70
2022/01/26 00:15:22;;;;;;;0.73;0.73;;;4.70;99.90;;;;;;4441523;32;20064;-70
2022/01/26 00:17:50;;;;;;;0.45;0.45;;;4.70;99.90;;;;;;4443541;32;20109;-69
2022/01/26 00:26:27;;;;;;;1.95;1.20;;;4.70;99.90;;;;;;4443147;32;20110;-69
2022/01/26 00:33:06;;;;;;;0.52;0.52;;;4.70;99.90;;;;;;4443272;32;20048;-69
2022/01/26 00:38:41;;;;;;;1.00;0.77;;;4.70;99.90;;;;;;4441957;32;20072;-70
2022/01/26 00:41:11;;;;;;;3.60;1.48;;;4.70;99.90;;;;;;4441330;32;20077;-70
2022/01/26 00:43:41;;;;;;;1.30;0.90;;;4.70;99.90;;;;;;4441790;32;20591;-70
2022/01/26 00:46:07;;;;;;;1.12;1.08;;;4.70;99.90;;;;;;4440152;32;20057;-69
2022/01/26 00:48:36;;;;;;;0.60;0.60;;;4.70;99.90;;;;;;4443774;32;20565;-70
2022/01/26 00:51:05;;;;;;;3.30;1.30;;;4.70;99.90;;;;;;4444267;32;20081;-70
2022/01/26 00:53:34;;;;;;;0.43;0.43;;;4.70;99.90;;;;;;4434504;32;20560;-70
2022/01/26 00:56:00;;;;;;;4.12;1.40;;;4.70;99.90;;;;;;4443645;32;20110;-70
2022/01/26 00:58:26;;;;;;;0.40;0.40;;;4.70;99.90;;;;;;4443089;32;20096;-70
2022/01/26 01:00:53;;;;;;;3.45;1.85;;;4.70;99.90;;;;;;4440786;32;20073;-70
2022/01/26 01:03:20;;;;;;;1.45;1.02;;;4.70;99.90;;;;;;4443546;32;20065;-70
2022/01/26 01:06:51;;;;;;;0.65;0.65;;;4.70;99.90;;;;;;4442742;32;20114;-70
2022/01/26 01:08:31;;;;;;;0.43;0.43;;;4.60;99.90;;;;;;4434662;32;20095;-70
2022/01/26 01:10:57;;;;;;;2.72;1.17;;;4.70;99.90;;;;;;4443293;32;20386;-71
2022/01/26 01:13:33;;;;;;;2.42;1.27;;;4.70;99.90;;;;;;4443650;32;20061;-70
2022/01/26 01:15:59;;;;;;;0.55;0.55;;;4.70;99.90;;;;;;4443244;32;20125;-70
2022/01/26 01:18:35;;;;;;;0.90;0.90;;;4.70;99.90;;;;;;4442490;32;20057;-70
2022/01/26 01:25:22;;;;;;;0.70;0.70;;;4.70;99.90;;;;;;4440010;32;20112;-70
2022/01/26 01:26:41;;;;;;;0.50;0.50;;;4.70;99.90;;;;;;4440182;32;20065;-70
2022/01/26 01:31:53;;;;;;;5.22;1.35;;;4.70;99.90;;;;;;4431576;32;20146;-70
2022/01/26 01:34:27;;;;;;;0.47;0.47;;;4.70;99.90;;;;;;4442308;32;20078;-70
2022/01/26 01:36:54;;;;;;;6.57;1.33;;;4.70;99.90;;;;;;4441602;32;20414;-71
2022/01/26 01:39:21;;;;;;;3.28;1.08;;;4.80;99.90;;;;;;4438072;32;20070;-70
2022/01/26 01:41:49;;;;;;;0.70;0.70;;;4.80;99.90;;;;;;4442817;32;20486;-70
2022/01/26 01:44:16;;;;;;;0.40;0.40;;;4.80;99.90;;;;;;4442461;32;20501;-70
2022/01/26 01:46:42;;;;;;;1.30;0.90;;;4.70;99.90;;;;;;4441285;32;20060;-70
2022/01/26 01:49:10;;;;;;;0.50;0.50;;;4.80;99.90;;;;;;4443438;32;20060;-69
2022/01/26 01:51:39;;;;;;;2.15;1.50;;;4.70;99.90;;;;;;4442563;32;20140;-69
2022/01/26 01:54:14;;;;;;;1.55;0.82;;;4.70;99.90;;;;;;4441409;32;20061;-70
2022/01/26 01:56:42;;;;;;;0.70;0.70;;;4.60;99.90;;;;;;4438536;32;20529;-70
2022/01/26 01:59:09;;;;;;;0.40;0.40;;;4.60;99.90;;;;;;4434895;32;20414;-70
2022/01/26 02:01:34;;;;;;;0.70;0.70;;;4.60;99.90;;;;;;4443694;32;20127;-70
2022/01/26 02:04:00;;;;;;;0.52;0.52;;;4.70;99.90;;;;;;4439962;32;20062;-70
2022/01/26 02:06:25;;;;;;;0.40;0.40;;;4.60;99.90;;;;;;4439171;32;20068;-70
2022/01/26 02:08:51;;;;;;;0.90;0.90;;;4.60;99.90;;;;;;4441543;32;20061;-70
2022/01/26 02:11:16;;;;;;;0.98;0.70;;;4.70;99.90;;;;;;4441589;32;20470;-69
2022/01/26 02:16:27;;;;;;;0.93;0.87;;;4.60;99.90;;;;;;4439676;32;20410;-70
2022/01/26 02:22:01;;;;;;;0.52;0.52;;;4.60;99.90;;;;;;4439596;32;20499;-69
2022/01/26 02:49:20;;;;;;;0.60;0.60;;;4.60;99.90;;;;;;4440926;32;20090;-70
2022/01/26 02:53:29;;;;;;;0.80;0.70;;;4.60;99.90;;;;;;4442289;32;20540;-69
2022/01/26 02:57:29;;;;;;;0.57;0.57;;;4.70;99.90;;;;;;4440803;32;20122;-70
2022/01/26 03:01:06;;;;;;;0.80;0.80;;;4.60;99.90;;;;;;4440316;32;20065;-70
2022/01/26 03:02:44;;;;;;;5.00;0.90;;;4.60;99.90;;;;;;4438323;32;20443;-70
2022/01/26 03:05:12;;;;;;;0.50;0.50;;;4.60;99.90;;;;;;4441374;32;20134;-70
2022/01/26 03:07:46;;;;;;;7.57;1.10;;;4.60;99.90;;;;;;4441104;32;20089;-70
2022/01/26 03:10:51;;;;;;;0.50;0.50;;;4.60;99.90;;;;;;4440262;32;20474;-70
2022/01/26 03:16:26;;;;;;;0.40;0.40;;;4.70;99.90;;;;;;4429027;32;20438;-70
2022/01/26 03:18:58;;;;;;;0.70;0.70;;;4.70;99.90;;;;;;4444433;32;20501;-70
2022/01/26 03:21:34;;;;;;;0.85;0.85;;;4.60;99.90;;;;;;4444217;32;20057;-69
2022/01/26 03:29:09;;;;;;;2.20;1.60;;;4.60;99.90;;;;;;4442278;32;20061;-70
2022/01/26 03:32:44;;;;;;;0.40;0.40;;;4.50;99.90;;;;;;4442325;32;20122;-70
2022/01/26 03:34:54;;;;;;;1.02;0.70;;;4.50;99.90;;;;;;4444182;32;20121;-70
2022/01/26 03:37:29;;;;;;;0.60;0.60;;;4.50;99.90;;;;;;4444251;32;20664;-70
2022/01/26 03:39:55;;;;;;;0.65;0.65;;;4.50;99.90;;;;;;4444752;32;20069;-70
2022/01/26 03:42:21;;;;;;;0.60;0.60;;;4.50;99.90;;;;;;4444432;32;20068;-69
2022/01/26 03:44:47;;;;;;;1.00;0.90;;;4.50;99.90;;;;;;4444931;32;20098;-69
2022/01/26 03:47:13;;;;;;;0.90;0.88;;;4.40;99.90;;;;;;4445546;32;20384;-69
2022/01/26 03:49:38;;;;;;;1.58;0.95;;;4.30;99.90;;;;;;4445911;32;20164;-69
2022/01/26 03:52:05;;;;;;;2.15;1.37;;;4.30;99.90;;;;;;4443312;32;20758;-69
2022/01/26 03:54:31;;;;;;;0.90;0.90;;;4.30;99.90;;;;;;4432384;32;20152;-69
2022/01/26 03:56:56;;;;;;;0.93;0.93;;;4.30;99.90;;;;;;4443205;32;20077;-69
2022/01/26 03:59:22;;;;;;;2.47;1.55;;;4.30;99.90;;;;;;4442519;32;20065;-69
2022/01/26 04:01:47;;;;;;;0.88;0.70;;;4.40;99.90;;;;;;4444543;32;20076;-70
2022/01/26 04:04:13;;;;;;;2.83;0.70;;;4.30;99.90;;;;;;4443055;32;20068;-70
2022/01/26 04:06:39;;;;;;;1.20;1.12;;;4.30;99.90;;;;;;4441740;32;20066;-69
2022/01/26 04:09:08;;;;;;;3.50;1.23;;;4.30;99.90;;;;;;4442337;32;20203;-70
2022/01/26 04:11:37;;;;;;;6.43;2.35;;;4.30;99.90;;;;;;4442160;32;20053;-69
2022/01/26 04:14:06;;;;;;;0.40;0.40;;;4.20;99.90;;;;;;4442527;32;20501;-69
2022/01/26 04:16:32;;;;;;;0.82;0.82;;;4.20;99.90;;;;;;4442057;32;20122;-70
2022/01/26 04:18:58;;;;;;;1.42;1.33;;;4.20;99.90;;;;;;4443656;32;20065;-70
2022/01/26 04:21:35;;;;;;;0.73;0.73;;;4.20;99.90;;;;;;4444209;32;20077;-70
2022/01/26 04:24:12;;;;;;;10.88;1.52;;;4.20;99.90;;;;;;4438687;32;20092;-70
2022/01/26 04:27:42;;;;;;;1.83;0.60;;;4.20;99.90;;;;;;4442723;32;20168;-70
2022/01/26 04:29:28;;;;;;;0.50;0.50;;;4.20;99.90;;;;;;4436478;32;20194;-70
2022/01/26 04:31:53;;;;;;;0.60;0.60;;;4.20;99.90;;;;;;4444036;32;20074;-70
2022/01/26 04:34:20;;;;;;;0.57;0.57;;;4.10;99.90;;;;;;4441162;32;109871;-69
2022/01/26 04:36:49;;;;;;;0.65;0.65;;;4.20;99.90;;;;;;4443673;32;20423;-70
2022/01/26 04:39:20;;;;;;;0.80;0.75;;;4.10;99.90;;;;;;4442460;32;20097;-70
2022/01/26 04:41:51;;;;;;;0.40;0.40;;;4.10;99.90;;;;;;4442889;32;20073;-69
2022/01/26 04:44:24;;;;;;;0.82;0.75;;;4.20;99.90;;;;;;4440186;32;20516;-70
2022/01/26 04:46:50;;;;;;;1.02;0.82;;;4.10;99.90;;;;;;4443970;32;20093;-69
2022/01/26 04:49:15;;;;;;;0.75;0.75;;;4.10;99.90;;;;;;4443786;32;20073;-69
2022/01/26 04:51:41;;;;;;;1.95;0.55;;;4.10;99.90;;;;;;4441324;32;20073;-69
2022/01/26 04:54:07;;;;;;;0.55;0.55;;;4.10;99.90;;;;;;4441545;32;20061;-69
2022/01/26 04:56:33;;;;;;;1.95;1.08;;;4.10;99.90;;;;;;4443791;32;20368;-69
2022/01/26 04:58:58;;;;;;;2.10;1.15;;;4.10;99.90;;;;;;4441531;32;20093;-69
2022/01/26 05:01:24;;;;;;;0.40;0.40;;;4.10;99.90;;;;;;4443929;32;20115;-69
2022/01/26 05:03:49;;;;;;;0.77;0.68;;;4.10;99.90;;;;;;4443855;32;20102;-69
2022/01/26 05:06:15;;;;;;;0.50;0.50;;;4.20;99.90;;;;;;4442964;32;20073;-69
2022/01/26 05:08:40;;;;;;;0.93;0.90;;;4.10;99.90;;;;;;4443039;32;20080;-69
2022/01/26 05:11:08;;;;;;;0.65;0.65;;;4.10;99.90;;;;;;4443090;32;20061;-70
2022/01/26 05:13:34;;;;;;;0.57;0.57;;;4.10;99.90;;;;;;4439537;32;20084;-70
2022/01/26 05:15:59;;;;;;;0.40;0.40;;;4.00;99.90;;;;;;4442545;32;20414;-69
2022/01/26 05:18:25;;;;;;;0.40;0.40;;;4.10;99.90;;;;;;4442803;32;20061;-69
2022/01/26 05:20:57;;;;;;;0.45;0.45;;;4.10;99.90;;;;;;4441524;32;20514;-69
2022/01/26 05:23:22;;;;;;;0.70;0.70;;;3.90;99.90;;;;;;4435209;32;20100;-69
2022/01/26 05:25:48;;;;;;;0.30;0.30;;;3.90;99.90;;;;;;4442444;32;20529;-71
2022/01/26 05:28:13;;;;;;;1.60;1.05;;;3.90;99.90;;;;;;4441396;32;20122;-69
2022/01/26 05:30:39;;;;;;;0.57;0.57;;;3.90;99.90;;;;;;4440262;32;20093;-69
2022/01/26 05:33:04;;;;;;;1.55;0.60;;;4.00;99.90;;;;;;4439644;32;20092;-69
2022/01/26 05:35:30;;;;;;;0.40;0.40;;;3.90;99.90;;;;;;4441415;32;20095;-70
2022/01/26 05:37:56;;;;;;;0.40;0.40;;;3.90;99.90;;;;;;4439623;32;20065;-70
2022/01/26 05:40:22;;;;;;;1.37;1.27;;;3.90;99.90;;;;;;4442202;32;20419;-69
2022/01/26 05:42:48;;;;;;;0.30;0.30;;;4.00;99.90;;;;;;4441945;32;20123;-70
2022/01/26 05:45:24;;;;;;;0.70;0.70;;;4.00;99.90;;;;;;4442917;32;20119;-70
2022/01/26 05:47:49;;;;;;;0.40;0.40;;;4.00;99.90;;;;;;4441868;32;20466;-71
2022/01/26 05:50:15;;;;;;;0.50;0.50;;;3.90;99.90;;;;;;4442282;32;20128;-70
2022/01/26 05:52:41;;;;;;;0.90;0.50;;;3.90;99.90;;;;;;4442721;32;20116;-69
2022/01/26 05:55:07;;;;;;;0.60;0.60;;;3.80;99.90;;;;;;4444680;32;20518;-68
2022/01/26 05:57:33;;;;;;;0.70;0.70;;;3.70;99.90;;;;;;4443276;32;20054;-68
2022/01/26 05:59:58;;;;;;;3.00;1.17;;;3.70;99.90;;;;;;4440696;32;20068;-68
2022/01/26 06:02:24;;;;;;;0.65;0.65;;;3.60;99.90;;;;;;4435183;32;20077;-68
2022/01/26 06:04:49;;;;;;;0.43;0.43;;;3.60;99.90;;;;;;4438043;32;20081;-68
2022/01/26 06:07:15;;;;;;;2.75;1.20;;;3.60;99.90;;;;;;4438731;32;20069;-68
2022/01/26 06:09:40;;;;;;;1.87;1.10;;;3.60;99.90;;;;;;4442291;32;20098;-69
2022/01/26 06:12:06;;;;;;;0.82;0.82;;;3.60;99.90;;;;;;4439892;32;20123;-68
2022/01/26 06:14:32;;;;;;;0.70;0.70;;;3.70;99.90;;;;;;4441755;32;20072;-68
2022/01/26 06:16:57;;;;;;;0.50;0.50;;;3.70;99.90;;;;;;4430244;32;20084;-68
2022/01/26 06:19:23;;;;;;;0.82;0.80;;;3.70;99.90;;;;;;4431540;32;20449;-68
2022/01/26 06:21:48;;;;;;;3.78;1.25;;;3.70;99.90;;;;;;4441729;32;20090;-68
2022/01/26 06:24:14;;;;;;;2.00;1.10;;;3.80;99.90;;;;;;4440316;32;20132;-68
2022/01/26 06:26:42;;;;;;;2.12;1.00;;;3.80;99.90;;;;;;4420446;32;20138;-68
2022/01/26 06:29:07;;;;;;;0.60;0.60;;;3.80;99.90;;;;;;4431212;32;20096;-69
2022/01/26 06:31:34;;;;;;;0.68;0.68;;;3.80;99.90;;;;;;4414105;32;20089;-69
2022/01/26 06:34:03;;;;;;;0.40;0.40;;;3.90;99.90;;;;;;4434859;32;20081;-69
2022/01/26 06:36:28;;;;;;;1.05;0.95;;;3.90;99.90;;;;;;4431434;32;20118;-68
2022/01/26 06:38:55;;;;;;;0.82;0.82;;;3.90;99.90;;;;;;4431688;32;20404;-68
2022/01/26 06:41:26;;;;;;;0.70;0.70;;;3.80;99.90;;;;;;4439937;32;20061;-68
2022/01/26 06:44:00;;;;;;;0.50;0.50;;;3.70;99.90;;;;;;4436654;32;20443;-69
2022/01/26 06:46:37;;;;;;;0.70;0.70;;;3.80;99.90;;;;;;4435644;32;20085;-69
2022/01/26 06:49:28;;;;;;;0.80;0.80;;;3.80;99.90;;;;;;4424173;32;20097;-69
2022/01/26 06:51:49;;;;;;;0.70;0.40;;;3.80;99.90;;;;;;4428349;32;20069;-70
2022/01/26 06:54:15;;;;;;;0.47;0.47;;;3.80;99.90;;;;;;4433423;32;20147;-69
2022/01/26 06:56:40;;;;;;;1.25;1.15;;;3.70;99.90;;;;;;4434816;32;20054;-69
2022/01/26 06:59:06;;;;;;;0.70;0.70;;;3.70;99.90;;;;;;4425126;32;20175;-69
2022/01/26 07:01:31;;;;;;;0.68;0.68;;;3.70;99.90;;;;;;4426432;32;20077;-68
2022/01/26 07:03:56;;;;;;;6.82;1.02;;;3.80;99.90;;;;;;4433132;32;20391;-69
2022/01/26 07:06:22;;;;;;;5.62;1.60;;;3.80;99.90;;;;;;4432127;32;20596;-68
2022/01/26 07:08:47;;;;;;;1.87;1.55;;;3.80;99.90;;;;;;4425555;32;20113;-68
2022/01/26 07:11:13;;;;;;;2.37;1.48;;;3.80;99.90;;;;;;4429113;32;20073;-69
2022/01/26 07:13:40;;;;;;;1.05;0.98;;;3.80;99.90;;;;;;4432131;32;20423;-69
2022/01/26 07:20:13;;;;;;;2.55;1.60;;;3.70;99.90;;;;;;4431275;32;20089;-69
2022/01/26 07:21:36;;;;;;;0.50;0.50;;;3.70;99.90;;;;;;4428812;32;20064;-69
2022/01/26 07:24:02;;;;;;;1.08;0.95;;;3.70;99.90;;;;;;4429699;32;20142;-69
2022/01/26 07:26:29;;;;;;;0.60;0.60;;;3.70;99.90;;;;;;4430256;32;20128;-69
2022/01/26 07:28:56;;;;;;;2.78;1.75;;;3.70;99.90;;;;;;4435614;32;20084;-69
2022/01/26 07:31:22;;;;;;;0.60;0.60;;;3.70;99.90;;;;;;4428499;32;20169;-69
2022/01/26 07:33:53;;;;;;;0.77;0.77;;;3.70;99.90;;;;;;4431059;32;20093;-69
2022/01/26 07:36:20;;;;;;;6.30;1.58;;;3.70;99.90;;;;;;4431205;32;20629;-69
2022/01/26 07:38:49;;;;;;;0.70;0.70;;;3.80;99.90;;;;;;4433770;32;20147;-69
2022/01/26 07:41:15;;;;;;;4.95;1.52;;;3.80;99.90;;;;;;4434915;32;20130;-69
2022/01/26 07:43:40;;;;;;;2.50;1.73;;;3.80;99.90;;;;;;4433794;32;20077;-69
2022/01/26 07:46:06;;;;;;;3.00;1.25;;;3.80;99.90;;;;;;4429998;32;20065;-69
2022/01/26 07:48:32;;;;;;;1.08;1.00;;;3.80;99.90;;;;;;4429104;32;20101;-69
2022/01/26 07:50:57;;;;;;;0.88;0.88;;;3.80;99.90;;;;;;4430470;32;20077;-69
2022/01/26 07:53:23;;;;;;;0.68;0.68;;;3.80;99.90;;;;;;4431855;32;20081;-70
2022/01/26 07:55:49;;;;;;;2.58;1.33;;;3.90;99.90;;;;;;4434294;32;20065;-69
2022/01/26 07:58:15;;;;;;;0.60;0.60;;;3.90;99.90;;;;;;4428074;32;21074;-67
2022/01/26 08:00:41;;;;;;;0.80;0.80;;;3.90;99.90;;;;;;4431917;32;20097;-69
2022/01/26 08:03:06;;;;;;;0.45;0.45;;;3.90;99.90;;;;;;4430736;32;20073;-69
2022/01/26 08:05:32;;;;;;;0.50;0.45;;;3.80;99.90;;;;;;4426499;32;20117;-69
2022/01/26 08:07:57;;;;;;;0.52;0.52;;;3.90;99.90;;;;;;4432101;32;20080;-69
2022/01/26 08:10:23;;;;;;;1.08;1.02;;;3.90;99.90;;;;;;4433314;32;20517;-69
2022/01/26 08:12:50;;;;;;;3.45;1.15;;;3.80;99.90;;;;;;4433572;32;20081;-69
2022/01/26 08:15:15;;;;;;;0.50;0.50;;;3.80;99.90;;;;;;4431840;32;20065;-68
2022/01/26 08:17:42;;;;;;;1.10;1.10;;;3.80;99.90;;;;;;4429939;32;20171;-68
2022/01/26 08:20:10;;;;;;;0.65;0.65;;;3.80;99.90;;;;;;4430447;32;20064;-68
2022/01/26 08:22:35;;;;;;;1.35;0.80;;;3.80;99.90;;;;;;4431040;32;20127;-68
2022/01/26 08:25:01;;;;;;;0.55;0.55;;;3.80;99.90;;;;;;4435507;32;20379;-70
2022/01/26 08:27:31;;;;;;;0.75;0.75;;;3.90;99.90;;;;;;4430620;32;20160;-69
2022/01/26 08:30:05;;;;;;;0.52;0.52;;;3.90;99.90;;;;;;4426038;32;20083;-69
2022/01/26 08:32:30;;;;;;;1.08;0.70;;;3.90;99.90;;;;;;4426399;32;20687;-69
2022/01/26 08:34:56;;;;;;;18.25;1.33;;;3.80;99.90;;;;;;4429772;32;20101;-69
2022/01/26 08:37:21;;;;;;;0.73;0.73;;;3.80;99.90;;;;;;4424202;32;20572;-70
2022/01/26 08:39:48;;;;;;;0.40;0.40;;;3.80;99.90;;;;;;4424713;32;20085;-69
2022/01/26 08:42:13;;;;;;;5.37;0.90;;;3.80;99.90;;;;;;4421799;32;20085;-67
2022/01/26 08:44:39;;;;;;;0.60;0.60;;;3.90;99.90;;;;;;4429759;32;20169;-68
2022/01/26 08:47:05;;;;;;;0.50;0.50;;;3.70;99.90;;;;;;4427844;32;20097;-68
2022/01/26 08:49:31;;;;;;;0.40;0.40;;;3.70;99.90;;;;;;4423486;32;20107;-69
2022/01/26 08:51:58;;;;;;;1.10;0.93;;;3.80;99.90;;;;;;4418282;32;21251;-68
2022/01/26 08:54:23;;;;;;;2.55;1.33;;;3.90;99.90;;;;;;4422983;32;20110;-68
2022/01/26 08:56:51;;;;;;;1.37;1.27;;;3.80;99.90;;;;;;4420495;32;20088;-67
2022/01/26 08:59:18;;;;;;;8.85;1.77;;;3.80;99.90;;;;;;4427899;32;20090;-67
2022/01/26 09:01:43;;;;;;;0.47;0.47;;;3.80;99.90;;;;;;4430711;32;20061;-69
2022/01/26 09:04:09;;;;;;;3.40;0.80;;;3.80;99.90;;;;;;4427576;32;20632;-68
2022/01/26 09:06:39;;;;;;;0.68;0.60;;;3.80;99.90;;;;;;4427208;32;20074;-68
2022/01/26 09:09:07;;;;;;;0.82;0.82;;;3.80;99.90;;;;;;4427815;32;20101;-68
2022/01/26 09:11:36;;;;;;;1.48;1.17;;;3.80;99.90;;;;;;4429463;32;20442;-68
2022/01/26 09:14:07;;;;;;;1.08;0.75;;;4.00;99.90;;;;;;4426904;32;20072;-67
2022/01/26 09:16:35;;;;;;;1.27;1.17;;;4.00;99.90;;;;;;4428450;32;20143;-68
2022/01/26 09:19:08;;;;;;;0.65;0.65;;;4.10;99.90;;;;;;4427901;32;20094;-67
2022/01/26 09:21:35;;;;;;;1.05;0.90;;;4.00;99.90;;;;;;4429948;32;20088;-67
2022/01/26 09:24:00;;;;;;;0.65;0.65;;;3.90;99.90;;;;;;4426234;32;20765;-67
2022/01/26 09:26:26;;;;;;;1.00;0.70;;;4.00;99.90;;;;;;4427991;32;20077;-67
2022/01/26 09:28:51;;;;;;;0.57;0.57;;;3.90;99.90;;;;;;4434224;32;20362;-67
2022/01/26 09:31:17;;;;;;;0.70;0.70;;;4.00;99.90;;;;;;4430315;32;20068;-67
2022/01/26 09:33:42;;;;;;;0.82;0.73;;;4.00;99.90;;;;;;4432290;32;20109;-68
2022/01/26 09:36:08;;;;;;;1.85;1.00;;;4.00;99.90;;;;;;4430783;32;20093;-67
2022/01/26 09:38:33;;;;;;;3.28;1.08;;;3.90;99.90;;;;;;4429445;32;20496;-68
2022/01/26 09:40:58;;;;;;;0.95;0.85;;;3.90;99.90;;;;;;4423237;32;20096;-67
2022/01/26 09:43:27;;;;;;;0.73;0.73;;;3.90;99.90;;;;;;4426517;32;20233;-68
2022/01/26 09:45:53;;;;;;;0.60;0.60;;;3.90;99.90;;;;;;4426939;32;20825;-68
2022/01/26 09:48:18;;;;;;;5.30;1.05;;;4.00;99.90;;;;;;4427747;32;20129;-67
2022/01/26 09:50:45;;;;;;;0.30;0.30;;;4.10;99.90;;;;;;4430439;32;20852;-67
2022/01/26 09:53:16;;;;;;;0.45;0.45;;;4.00;99.90;;;;;;4421437;32;20088;-66
2022/01/26 09:55:43;;;;;;;2.42;1.75;;;4.00;99.90;;;;;;4422464;32;20971;-66
2022/01/26 09:58:09;;;;;;;0.73;0.73;;;4.00;99.90;;;;;;4421405;32;20463;-66
2022/01/26 10:00:35;;;;;;;0.43;0.43;;;4.00;99.90;;;;;;4425025;32;20176;-68
2022/01/26 10:03:03;;;;;;;0.70;0.70;;;4.00;99.90;;;;;;4419404;32;20072;-68
2022/01/26 10:05:45;;;;;;;3.58;1.05;;;4.10;99.90;;;;;;4424014;32;20592;-68
2022/01/26 10:08:39;;;;;;;1.02;0.93;;;4.20;99.90;;;;;;4417222;32;20113;-68
2022/01/26 10:15:57;;;;;;;0.40;0.40;;;4.10;99.90;;;;;;4388688;32;20093;-67
2022/01/26 10:19:03;;;;;;;5.78;1.52;;;4.10;99.90;;;;;;4416405;32;20093;-68
2022/01/26 10:21:29;;;;;;;0.80;0.70;;;4.10;99.90;;;;;;4408732;32;20089;-68
2022/01/26 10:23:58;;;;;;;1.90;0.98;;;4.10;99.90;;;;;;4420518;32;20101;-68
2022/01/26 10:26:24;;;;;;;0.68;0.68;;;4.00;99.90;;;;;;4415563;32;20105;-69
2022/01/26 10:28:53;;;;;;;0.35;0.35;;;4.00;99.90;;;;;;4422956;32;20700;-66
2022/01/26 10:31:23;;;;;;;0.80;0.60;;;4.10;99.90;;;;;;4424683;32;20556;-69
2022/01/26 10:34:11;;;;;;;1.08;0.93;;;4.20;99.90;;;;;;4429943;32;20160;-69
2022/01/26 10:36:43;;;;;;;4.80;1.08;;;4.20;99.90;;;;;;4430052;32;20560;-69
2022/01/26 10:39:11;;;;;;;0.30;0.30;;;4.20;99.90;;;;;;4433476;32;20403;-68
2022/01/26 10:41:40;;;;;;;0.62;0.62;;;4.20;99.90;;;;;;4430021;32;20088;-69
2022/01/26 10:44:06;;;;;;;0.65;0.65;;;4.20;99.90;;;;;;4427891;32;20121;-68
2022/01/26 10:46:39;;;;;;;7.97;1.10;;;4.20;99.90;;;;;;4428520;32;20061;-68
2022/01/26 10:49:20;;;;;;;0.57;0.57;;;4.20;99.90;;;;;;4430150;32;20118;-69
2022/01/26 10:54:22;;;;;;;0.88;0.62;;;4.30;99.90;;;;;;4427591;32;20093;-69
2022/01/26 10:56:51;;;;;;;0.40;0.40;;;4.40;99.90;;;;;;4432478;32;20816;-69
2022/01/26 10:59:17;;;;;;;1.17;0.82;;;4.40;99.90;;;;;;4426120;32;20108;-69
2022/01/26 11:01:43;;;;;;;0.65;0.65;;;4.60;99.90;;;;;;4428166;32;20566;-70
2022/01/26 11:04:09;;;;;;;0.30;0.30;;;4.50;99.90;;;;;;4433892;32;20085;-69
2022/01/26 11:06:36;;;;;;;0.77;0.77;;;4.50;99.90;;;;;;4435862;32;20077;-69
2022/01/26 11:09:11;;;;;;;2.12;1.12;;;4.40;99.90;;;;;;4433260;32;20680;-69
2022/01/26 11:11:39;;;;;;;2.10;1.15;;;4.40;99.90;;;;;;4428273;32;20601;-69
2022/01/26 11:14:15;;;;;;;5.28;0.93;;;4.30;99.90;;;;;;4428752;32;20246;-69
2022/01/26 11:17:01;;;;;;;2.78;1.33;;;4.30;99.90;;;;;;4425431;32;20089;-69
2022/01/26 11:19:26;;;;;;;0.80;0.80;;;4.20;99.90;;;;;;4418156;32;20080;-69
2022/01/26 11:21:52;;;;;;;1.12;0.60;;;4.20;99.90;;;;;;4430420;32;20840;-68
2022/01/26 11:24:20;;;;;;;0.50;0.50;;;4.20;99.90;;;;;;4432615;32;20144;-69
2022/01/26 11:26:47;;;;;;;1.08;0.60;;;4.20;99.90;;;;;;4431035;32;21254;-70
2022/01/26 11:29:21;;;;;;;0.50;0.50;;;4.20;99.90;;;;;;4422554;32;20077;-69
2022/01/26 11:31:58;;;;;;;0.50;0.50;;;4.10;99.90;;;;;;4426460;32;20362;-68
2022/01/26 11:34:27;;;;;;;1.00;0.75;;;4.10;99.90;;;;;;4423339;32;20359;-69
2022/01/26 11:36:57;;;;;;;0.40;0.40;;;4.20;99.90;;;;;;4425044;32;20143;-68
2022/01/26 11:42:31;;;;;;;0.37;0.37;;;4.30;99.90;;;;;;4421886;32;20128;-70
2022/01/26 11:45:15;;;;;;;0.52;0.52;;;4.40;99.90;;;;;;4428125;32;20087;-69
2022/01/26 11:47:45;;;;;;;0.30;0.30;;;4.40;99.90;;;;;;4430385;32;20076;-69
2022/01/26 11:50:14;;;;;;;2.10;0.90;;;4.50;99.90;;;;;;4429086;32;20058;-68
2022/01/26 11:52:44;;;;;;;0.40;0.40;;;4.50;99.90;;;;;;4423876;32;20104;-69
2022/01/26 11:55:34;;;;;;;0.40;0.40;;;4.50;99.90;;;;;;4416497;32;20355;-68
2022/01/26 11:58:19;;;;;;;0.50;0.50;;;4.50;99.90;;;;;;4418948;32;20085;-68
2022/01/26 12:00:57;;;;;;;0.60;0.60;;;4.40;99.90;;;;;;4427946;32;20098;-69
2022/01/26 12:03:29;;;;;;;0.40;0.40;;;4.20;99.90;;;;;;4427666;32;20096;-69
2022/01/26 12:05:57;;;;;;;0.30;0.30;;;4.20;99.90;;;;;;4424174;32;20152;-68
2022/01/26 12:08:39;;;;;;;1.40;1.00;;;4.20;99.90;;;;;;4421335;32;20117;-69
2022/01/26 12:11:07;;;;;;;0.85;0.60;;;4.10;99.90;;;;;;4422299;32;20089;-69
2022/01/26 12:13:36;;;;;;;0.32;0.32;;;3.90;99.90;;;;;;4423376;32;20116;-69
2022/01/26 12:16:10;;;;;;;0.40;0.40;;;3.70;99.90;;;;;;4421824;32;20098;-69
2022/01/26 12:18:41;;;;;;;0.50;0.50;;;3.60;99.90;;;;;;4421142;32;20105;-69
2022/01/26 12:33:26;;;;;;;0.73;0.65;;;3.70;99.90;;;;;;4403777;32;20105;-69
2022/01/26 12:35:39;;;;;;;0.40;0.40;;;3.70;99.90;;;;;;4407603;32;20639;-68
2022/01/26 12:38:14;;;;;;;0.30;0.30;;;3.60;99.90;;;;;;4421163;32;20501;-68
2022/01/26 12:41:27;;;;;;;0.73;0.73;;;3.60;99.90;;;;;;4425761;32;20101;-68
2022/01/26 12:43:36;;;;;;;0.50;0.50;;;3.60;99.90;;;;;;4422626;32;20088;-69
2022/01/26 12:46:05;;;;;;;0.75;0.75;;;3.70;99.90;;;;;;4418582;32;20137;-69
2022/01/26 12:48:34;;;;;;;0.98;0.95;;;3.70;99.90;;;;;;4418891;32;20097;-68
2022/01/26 12:51:01;;;;;;;0.73;0.73;;;3.50;99.90;;;;;;4422610;32;20578;-68
2022/01/26 12:53:29;;;;;;;0.35;0.35;;;3.50;99.90;;;;;;4422977;32;20533;-68
2022/01/26 12:55:58;;;;;;;0.88;0.75;;;3.40;99.90;;;;;;4423648;32;20093;-68
2022/01/26 12:58:27;;;;;;;0.60;0.60;;;3.30;99.90;;;;;;4430967;32;20084;-70
2022/01/26 13:00:52;;;;;;;0.35;0.35;;;3.20;99.90;;;;;;4429974;32;20104;-69
2022/01/26 13:03:19;;;;;;;2.37;1.05;;;3.20;99.90;;;;;;4431749;32;20069;-69
2022/01/26 13:05:46;;;;;;;3.33;1.35;;;3.20;99.90;;;;;;4436769;32;20084;-69
2022/01/26 13:08:12;;;;;;;2.20;1.17;;;3.20;99.90;;;;;;4436940;32;20089;-69
2022/01/26 13:10:38;;;;;;;0.60;0.60;;;3.10;99.90;;;;;;4431670;32;20536;-69
2022/01/26 13:13:21;;;;;;;0.88;0.88;;;3.10;99.90;;;;;;4429662;32;20093;-70
2022/01/26 13:15:55;;;;;;;0.57;0.57;;;3.20;99.90;;;;;;4428988;32;20097;-68
2022/01/26 13:18:43;;;;;;;0.40;0.40;;;3.20;99.90;;;;;;4432659;32;20247;-69
2022/01/26 13:24:32;;;;;;;0.55;0.55;;;3.20;99.90;;;;;;4428765;32;20113;-69
2022/01/26 13:27:17;;;;;;;2.45;0.90;;;3.20;99.90;;;;;;4430502;32;20104;-69
2022/01/26 13:29:56;;;;;;;0.45;0.45;;;3.00;99.90;;;;;;4430733;32;20129;-68
2022/01/26 13:34:13;;;;;;;0.93;0.68;;;3.00;99.90;;;;;;4426310;32;20097;-69
2022/01/26 13:35:17;;;;;;;7.37;0.80;;;3.10;99.90;;;;;;4425414;32;20273;-69
2022/01/26 13:38:24;;;;;;;0.62;0.62;;;3.10;99.90;;;;;;4434268;32;20092;-69
2022/01/26 13:46:01;;;;;;;0.90;0.90;;;3.10;99.90;;;;;;4430435;32;20167;-70
2022/01/26 13:50:04;;;;;;;1.10;1.08;;;3.10;99.90;;;;;;4434212;32;20061;-70
2022/01/26 13:51:19;;;;;;;4.68;1.10;;;3.20;99.90;;;;;;4430690;32;20068;-70
2022/01/26 13:53:52;;;;;;;1.55;1.45;;;3.10;99.90;;;;;;4435794;32;20133;-68
2022/01/26 13:56:33;;;;;;;0.93;0.93;;;3.10;99.90;;;;;;4438556;32;20168;-70
2022/01/26 13:59:09;;;;;;;2.92;1.75;;;2.90;99.90;;;;;;4435113;32;20187;-70
2022/01/26 14:01:36;;;;;;;5.62;2.35;;;2.90;99.90;;;;;;4435349;32;20088;-70
2022/01/26 14:04:05;;;;;;;0.52;0.52;;;2.90;99.90;;;;;;4432876;32;20061;-70
2022/01/26 14:06:31;;;;;;;1.02;0.88;;;3.00;99.90;;;;;;4437777;32;20077;-69
2022/01/26 14:08:56;;;;;;;2.00;1.55;;;2.90;99.90;;;;;;4434945;32;20150;-69
2022/01/26 14:11:22;;;;;;;0.55;0.55;;;2.90;99.90;;;;;;4434137;32;20135;-70
2022/01/26 14:13:49;;;;;;;8.98;2.00;;;2.90;99.90;;;;;;4430831;32;20133;-69
2022/01/26 14:16:19;;;;;;;0.52;0.52;;;2.80;99.90;;;;;;4436976;32;20114;-70
2022/01/26 14:19:01;;;;;;;5.93;1.62;;;2.80;99.90;;;;;;4452061;32;20092;-71
2022/01/26 14:21:41;;;;;;;1.48;1.37;;;2.80;99.90;;;;;;4450841;32;20072;-70
2022/01/26 14:26:47;;;;;;;12.40;1.40;;;2.80;99.90;;;;;;4450448;32;20082;-70
2022/01/26 14:29:21;;;;;;;;;;;2.80;99.90;;;;;;4440449;32;20140;-69
2022/01/26 14:32:03;;;;;;;2.50;2.25;;;2.70;99.90;;;;;;4452682;32;19945;-69
2022/01/26 14:35:06;;;;;;;1.20;1.15;;;2.70;99.90;;;;;;4443844;32;20112;-69
2022/01/26 14:50:57;;;;;;;1.35;1.25;;;2.90;99.90;;;;;;4449070;32;20089;-70
2022/01/26 14:53:22;;;;;;;3.33;2.35;;;2.70;99.90;;;;;;4437072;32;20082;-69
2022/01/26 14:54:12;;;;;;;2.60;1.45;;;2.70;99.90;;;;;;4451580;32;20078;-70
2022/01/26 15:10:43;;;;;;;0.98;0.90;;;2.70;99.90;;;;;;4434847;32;20068;-68
2022/01/26 15:19:14;;;;;;;1.27;1.05;;;2.80;99.90;;;;;;4447626;32;20094;-68
2022/01/26 15:22:07;;;;;;;0.82;0.82;;;2.80;99.90;;;;;;4448212;32;20049;-69